Time;durP1;ratioP1;P1;durP2;ratioP2;P2;SDS_P1;SDS_P2;PMS_P1;PMS_P2;Temp;Humidity;BMP_temperature;BMP_pressure;BME280_temperature;BME280_humidity;BME280_pressure;Samples;Min_cycle;Max_cycle;Signal;HPM_P1;HPM_P2
2022/04/29 00:00:18;;;;;;;12.43;5.80;;;;;;;9.14;66.36;102919.00;5033854;28;20053;-80
2022/04/29 00:02:47;;;;;;;11.02;5.40;;;;;;;9.08;68.33;102919.72;5033449;28;20385;-80
2022/04/29 00:05:14;;;;;;;10.85;4.88;;;;;;;9.06;67.59;102915.34;5032944;28;20029;-80
2022/04/29 00:07:40;;;;;;;8.77;4.88;;;;;;;9.04;67.77;102912.69;5032981;28;20026;-80
2022/04/29 00:10:14;;;;;;;13.10;6.13;;;;;;;8.92;68.42;102909.81;5033471;28;20041;-80
2022/04/29 00:12:41;;;;;;;13.93;6.22;;;;;;;8.78;69.51;102909.47;5032810;28;20339;-81
2022/04/29 00:15:09;;;;;;;14.48;6.38;;;;;;;8.81;68.25;102905.22;5033538;28;20103;-80
2022/04/29 00:17:34;;;;;;;8.98;4.78;;;;;;;8.82;68.27;102900.94;5033379;28;20060;-80
2022/04/29 00:19:59;;;;;;;7.17;3.90;;;;;;;8.85;67.18;102906.19;5032035;28;20080;-80
2022/04/29 00:22:25;;;;;;;6.53;4.05;;;;;;;8.86;68.98;102905.34;5033477;28;20028;-80
2022/04/29 00:24:50;;;;;;;8.67;4.00;;;;;;;8.86;68.52;102907.06;5032783;28;20429;-80
2022/04/29 00:27:16;;;;;;;7.93;4.83;;;;;;;8.80;68.47;102903.47;5032881;28;20033;-80
2022/04/29 00:29:41;;;;;;;8.88;4.38;;;;;;;8.80;69.38;102906.06;5032889;28;20068;-80
2022/04/29 00:32:07;;;;;;;8.53;4.03;;;;;;;8.79;67.29;102906.03;5033061;28;20033;-81
2022/04/29 00:34:32;;;;;;;6.97;4.03;;;;;;;8.76;68.58;102914.63;5032558;28;20465;-81
2022/04/29 00:37:01;;;;;;;5.35;3.45;;;;;;;8.78;66.63;102909.47;5032704;28;20018;-81
2022/04/29 00:39:26;;;;;;;7.10;3.88;;;;;;;8.75;69.05;102906.78;5032748;28;20091;-80
2022/04/29 00:41:51;;;;;;;8.43;4.27;;;;;;;8.69;69.40;102907.50;5032451;28;20386;-81
2022/04/29 00:44:17;;;;;;;7.73;4.73;;;;;;;8.65;67.75;102908.28;5033198;28;20060;-80
2022/04/29 00:46:44;;;;;;;5.07;3.60;;;;;;;8.62;69.01;102897.84;5031931;28;20400;-80
2022/04/29 00:49:15;;;;;;;7.85;4.50;;;;;;;8.58;68.11;102898.59;5032865;28;20343;-80
2022/04/29 00:51:44;;;;;;;6.05;3.90;;;;;;;8.58;68.43;102898.59;5032524;28;20050;-80
2022/04/29 00:54:13;;;;;;;6.80;3.95;;;;;;;8.52;68.15;102888.94;5032169;28;20033;-80
2022/04/29 00:56:45;;;;;;;5.72;3.60;;;;;;;8.52;68.16;102898.44;5032482;28;20021;-80
2022/04/29 00:59:28;;;;;;;5.65;3.50;;;;;;;8.49;68.67;102896.66;5032914;28;20044;-80
2022/04/29 01:01:55;;;;;;;6.68;3.65;;;;;;;8.44;69.26;102890.44;5032194;28;20051;-80
2022/04/29 01:04:28;;;;;;;4.10;3.30;;;;;;;8.44;68.13;102888.75;5032395;28;20028;-80
2022/04/29 01:06:53;;;;;;;3.50;2.97;;;;;;;8.44;68.91;102887.84;5032570;28;20029;-80
2022/04/29 01:09:18;;;;;;;4.57;3.30;;;;;;;8.42;67.66;102885.22;5031862;28;20048;-80
2022/04/29 01:11:44;;;;;;;8.13;4.10;;;;;;;8.33;68.22;102885.00;5032600;28;20021;-80
2022/04/29 01:14:09;;;;;;;10.73;4.60;;;;;;;8.27;69.73;102895.16;5032679;28;20041;-80
2022/04/29 01:16:35;;;;;;;5.68;3.92;;;;;;;8.25;70.03;102889.97;5032035;28;20116;-80
2022/04/29 01:19:00;;;;;;;8.27;4.47;;;;;;;8.24;68.93;102889.88;5032213;28;20029;-80
2022/04/29 01:21:26;;;;;;;6.80;3.83;;;;;;;8.20;70.03;102883.75;5032513;28;20292;-80
2022/04/29 01:23:52;;;;;;;6.82;3.60;;;;;;;8.19;69.54;102880.31;5031652;28;20462;-80
2022/04/29 01:26:17;;;;;;;6.37;3.70;;;;;;;8.15;69.98;102864.69;5032564;28;20044;-80
2022/04/29 01:28:46;;;;;;;9.53;4.73;;;;;;;8.04;69.55;102867.84;5031809;28;20040;-80
2022/04/29 01:31:13;;;;;;;13.85;6.53;;;;;;;7.84;71.16;102866.38;5032243;28;20030;-81
2022/04/29 01:33:44;;;;;;;11.85;5.55;;;;;;;7.81;69.82;102858.56;5032079;28;20029;-79
2022/04/29 01:36:09;;;;;;;10.43;5.00;;;;;;;7.81;69.71;102853.38;5031732;28;20022;-80
2022/04/29 01:38:36;;;;;;;14.83;5.73;;;;;;;7.75;71.31;102855.78;5032475;28;20192;-80
2022/04/29 01:41:02;;;;;;;17.55;6.75;;;;;;;7.60;72.20;102853.63;5032329;28;20037;-80
2022/04/29 01:43:27;;;;;;;12.93;6.50;;;;;;;7.54;72.18;102857.78;5031869;28;20026;-80
2022/04/29 01:45:54;;;;;;;13.07;6.20;;;;;;;7.49;73.22;102850.72;5032246;28;20421;-80
2022/04/29 01:48:19;;;;;;;11.50;5.25;;;;;;;7.51;71.82;102857.72;5034374;28;20057;-80
2022/04/29 01:50:44;;;;;;;9.23;4.85;;;;;;;7.53;72.25;102850.88;5035337;28;20449;-80
2022/04/29 01:53:09;;;;;;;7.47;4.60;;;;;;;7.54;71.08;102850.03;5036248;28;20029;-80
2022/04/29 01:55:35;;;;;;;8.50;4.60;;;;;;;7.56;70.93;102848.38;5035804;28;20053;-80
2022/04/29 01:58:00;;;;;;;6.63;3.75;;;;;;;7.58;71.01;102844.13;5035001;28;20025;-80
2022/04/29 02:00:26;;;;;;;6.07;3.83;;;;;;;7.57;71.75;102839.78;5036280;28;20037;-80
2022/04/29 02:02:51;;;;;;;5.23;3.40;;;;;;;7.58;70.10;102849.28;5035636;28;20029;-80
2022/04/29 02:05:17;;;;;;;6.90;3.50;;;;;;;7.60;70.94;102843.28;5035697;28;20021;-80
2022/04/29 02:07:44;;;;;;;9.75;4.55;;;;;;;7.54;72.91;102850.03;5035459;28;20029;-80
2022/04/29 02:10:09;;;;;;;10.40;4.60;;;;;;;7.52;70.81;102846.53;5035477;28;20032;-80
2022/04/29 02:12:35;;;;;;;6.60;4.18;;;;;;;7.54;70.78;102850.03;5035278;28;20033;-80
2022/04/29 02:15:01;;;;;;;6.40;3.80;;;;;;;7.55;70.28;102850.91;5036036;28;20029;-80
2022/04/29 02:17:26;;;;;;;8.65;4.60;;;;;;;7.50;70.68;102836.97;5035663;28;20640;-80
2022/04/29 02:19:52;;;;;;;7.05;3.88;;;;;;;7.53;71.31;102850.88;5035140;28;20108;-80
2022/04/29 02:22:17;;;;;;;10.20;4.63;;;;;;;7.51;70.97;102844.78;5035637;28;20064;-80
2022/04/29 02:24:45;;;;;;;7.10;4.20;;;;;;;7.50;69.63;102845.63;5035194;28;20030;-80
2022/04/29 02:27:10;;;;;;;6.95;3.85;;;;;;;7.50;70.59;102839.56;5034490;28;20033;-80
2022/04/29 02:29:36;;;;;;;5.87;3.43;;;;;;;7.53;70.95;102845.72;5035889;28;20037;-80
2022/04/29 02:32:01;;;;;;;5.70;3.92;;;;;;;7.51;69.62;102841.31;5035376;28;20116;-80
2022/04/29 02:34:26;;;;;;;10.90;5.20;;;;;;;7.39;71.39;102842.69;5035370;28;20075;-80
2022/04/29 02:36:52;;;;;;;8.68;4.68;;;;;;;7.37;70.38;102849.56;5034969;28;20069;-80
2022/04/29 02:39:21;;;;;;;6.75;4.05;;;;;;;7.38;71.75;102840.94;5034613;28;20030;-80
2022/04/29 02:41:46;;;;;;;10.65;5.45;;;;;;;7.29;71.53;102842.38;5034849;28;20146;-80
2022/04/29 02:44:12;;;;;;;9.97;5.20;;;;;;;7.22;72.41;102839.59;5035529;28;20057;-81
2022/04/29 02:47:06;;;;;;;7.03;4.57;;;;;;;7.22;72.31;102839.59;5034381;28;20436;-80
2022/04/29 02:49:23;;;;;;;6.38;4.00;;;;;;;7.25;70.80;102842.28;5034750;28;20045;-80
2022/04/29 02:51:48;;;;;;;6.00;3.50;;;;;;;7.31;70.55;102838.16;5034391;28;20452;-81
2022/04/29 02:54:14;;;;;;;6.70;3.60;;;;;;;7.32;71.49;102853.69;5032329;28;20080;-80
2022/04/29 02:56:40;;;;;;;5.38;3.60;;;;;;;7.35;70.54;102842.56;5034227;28;20029;-80
2022/04/29 02:59:05;;;;;;;7.38;4.07;;;;;;;7.30;72.63;102837.25;5034701;28;20041;-81
2022/04/29 03:01:30;;;;;;;11.80;5.45;;;;;;;7.24;70.83;102840.53;5034569;28;20025;-80
2022/04/29 03:03:56;;;;;;;10.77;5.50;;;;;;;7.20;72.49;102833.53;5034679;28;20386;-81
2022/04/29 03:06:21;;;;;;;12.50;5.50;;;;;;;7.14;73.79;102832.47;5034555;28;20035;-81
2022/04/29 03:08:46;;;;;;;11.17;5.23;;;;;;;7.10;72.78;102831.47;5033821;28;20025;-81
2022/04/29 03:11:11;;;;;;;10.48;5.75;;;;;;;7.04;73.57;102824.41;5035064;28;20436;-81
2022/04/29 03:13:37;;;;;;;7.97;4.88;;;;;;;7.03;72.03;102820.09;5034458;28;20026;-81
2022/04/29 03:16:02;;;;;;;11.67;5.70;;;;;;;7.04;72.24;102820.97;5033885;28;20025;-81
2022/04/29 03:18:28;;;;;;;9.97;5.07;;;;;;;7.02;73.08;102814.88;5034767;28;20104;-81
2022/04/29 03:20:56;;;;;;;11.30;6.00;;;;;;;6.97;74.43;102804.41;5034107;28;20377;-81
2022/04/29 03:23:25;;;;;;;17.55;7.35;;;;;;;6.80;74.91;102801.28;5033959;28;20098;-81
2022/04/29 03:25:50;;;;;;;16.05;7.55;;;;;;;6.74;75.08;102801.09;5034118;28;20418;-81
2022/04/29 03:28:16;;;;;;;14.00;6.60;;;;;;;6.74;74.21;102801.09;5034453;28;20102;-81
2022/04/29 03:30:41;;;;;;;12.38;6.30;;;;;;;6.75;73.63;102802.88;5033632;28;20033;-81
2022/04/29 03:33:08;;;;;;;9.27;5.33;;;;;;;6.80;74.04;102809.03;5034539;28;20382;-81
2022/04/29 03:35:47;;;;;;;11.40;5.57;;;;;;;6.83;74.99;102818.56;5033695;28;20386;-81
2022/04/29 03:38:13;;;;;;;11.48;5.63;;;;;;;6.84;73.65;102816.06;5034199;28;20034;-81
2022/04/29 03:40:39;;;;;;;11.47;5.83;;;;;;;6.85;74.21;102822.97;5033998;28;20045;-81
2022/04/29 03:43:05;;;;;;;14.48;6.47;;;;;;;6.78;73.91;102829.63;5033918;28;20014;-81
2022/04/29 03:45:30;;;;;;;11.30;5.90;;;;;;;6.76;72.88;102820.06;5034271;28;20025;-81
2022/04/29 03:47:56;;;;;;;11.57;5.50;;;;;;;6.82;72.49;102830.59;5033918;28;20026;-81
2022/04/29 03:50:25;;;;;;;10.37;5.00;;;;;;;6.84;74.08;102828.97;5033434;28;20063;-81
2022/04/29 03:52:59;;;;;;;8.40;4.82;;;;;;;6.80;74.96;102820.25;5033629;28;20049;-80
2022/04/29 03:55:27;;;;;;;12.70;5.50;;;;;;;6.79;73.83;102813.34;5033610;28;20056;-81
2022/04/29 03:57:56;;;;;;;10.90;5.55;;;;;;;6.77;75.07;102812.41;5033099;28;20080;-81
2022/04/29 04:00:26;;;;;;;10.50;5.55;;;;;;;6.75;73.38;102800.28;5033791;28;20021;-81
2022/04/29 04:02:52;;;;;;;11.13;5.15;;;;;;;6.75;73.83;102793.41;5033141;28;20129;-80
2022/04/29 04:05:20;;;;;;;7.45;4.53;;;;;;;6.76;72.75;102804.59;5033480;28;20112;-81
2022/04/29 04:07:45;;;;;;;7.30;4.25;;;;;;;6.83;72.31;102816.88;5033478;28;20470;-81
2022/04/29 04:10:12;;;;;;;6.10;3.80;;;;;;;6.87;74.33;102821.28;5032848;28;20037;-80
2022/04/29 04:12:46;;;;;;;11.80;5.55;;;;;;;6.79;75.01;102825.34;5032868;28;20022;-80
2022/04/29 04:15:16;;;;;;;10.63;5.47;;;;;;;6.73;73.60;102813.13;5033538;28;20025;-80
2022/04/29 04:17:41;;;;;;;7.78;4.95;;;;;;;6.74;74.02;102804.56;5032615;28;20113;-81
2022/04/29 04:20:08;;;;;;;7.05;4.45;;;;;;;6.78;72.87;102816.75;5033507;28;20504;-81
2022/04/29 04:22:35;;;;;;;6.03;3.90;;;;;;;6.80;72.82;102812.50;5033474;28;20092;-80
2022/04/29 04:25:02;;;;;;;6.18;3.80;;;;;;;6.80;73.41;102804.75;5032210;28;20025;-81
2022/04/29 04:27:28;;;;;;;9.32;5.10;;;;;;;6.75;73.73;102798.56;5032899;28;20108;-81
2022/04/29 04:29:53;;;;;;;10.60;5.60;;;;;;;6.73;74.66;102807.94;5032688;28;20113;-81
2022/04/29 04:32:18;;;;;;;8.85;4.57;;;;;;;6.70;73.99;102807.84;5032827;28;20037;-81
2022/04/29 04:34:49;;;;;;;7.82;4.68;;;;;;;6.68;74.67;102798.31;5033107;28;20022;-80
2022/04/29 04:37:15;;;;;;;17.65;7.55;;;;;;;6.59;76.04;102804.03;5033146;28;20026;-81
2022/04/29 04:39:40;;;;;;;16.33;7.18;;;;;;;6.60;74.55;102801.53;5032364;28;20128;-80
2022/04/29 04:42:09;;;;;;;11.20;6.05;;;;;;;6.64;75.21;102797.34;5033035;28;20033;-80
2022/04/29 04:44:35;;;;;;;13.98;6.85;;;;;;;6.62;75.66;102805.03;5032848;28;20122;-80
2022/04/29 04:47:00;;;;;;;13.60;6.40;;;;;;;6.60;74.49;102801.53;5032163;28;20064;-81
2022/04/29 04:49:25;;;;;;;14.05;6.55;;;;;;;6.61;75.93;102797.22;5033152;28;20040;-81
2022/04/29 04:51:51;;;;;;;16.13;7.50;;;;;;;6.61;75.09;102802.41;5031731;28;20061;-81
2022/04/29 04:54:16;;;;;;;17.73;7.95;;;;;;;6.54;75.74;102801.31;5032480;28;20037;-81
2022/04/29 04:56:41;;;;;;;21.20;9.27;;;;;;;6.45;76.31;102799.31;5032765;28;20393;-81
2022/04/29 04:59:06;;;;;;;19.77;8.90;;;;;;;6.44;76.52;102796.69;5032540;28;20112;-81
2022/04/29 05:01:32;;;;;;;17.13;8.48;;;;;;;6.38;76.87;102788.75;5031984;28;20036;-81
2022/04/29 05:03:57;;;;;;;20.65;9.70;;;;;;;6.26;76.90;102795.25;5032655;28;20033;-81
2022/04/29 05:06:22;;;;;;;21.10;9.97;;;;;;;6.20;77.82;102795.00;5032618;28;20397;-81
2022/04/29 05:08:47;;;;;;;18.58;8.50;;;;;;;6.25;76.66;102796.06;5031847;28;20033;-81
2022/04/29 05:11:13;;;;;;;20.90;10.35;;;;;;;6.20;77.81;102789.00;5031994;28;20108;-81
2022/04/29 05:13:38;;;;;;;19.45;9.60;;;;;;;6.23;77.64;102796.84;5031833;28;20412;-79
2022/04/29 05:16:04;;;;;;;17.88;8.55;;;;;;;6.24;77.22;102793.44;5031783;28;20143;-80
2022/04/29 05:18:30;;;;;;;17.98;8.30;;;;;;;6.27;76.85;102802.16;5032643;28;20025;-80
2022/04/29 05:20:55;;;;;;;18.38;8.32;;;;;;;6.29;77.45;102795.34;5030839;28;20033;-80
2022/04/29 05:23:20;;;;;;;17.08;8.20;;;;;;;6.32;77.21;102800.59;5036410;28;20037;-80
2022/04/29 05:25:46;;;;;;;15.53;7.17;;;;;;;6.38;76.34;102804.22;5036494;28;20052;-80
2022/04/29 05:28:12;;;;;;;16.57;8.07;;;;;;;6.40;76.46;102805.16;5036008;28;20124;-80
2022/04/29 05:30:38;;;;;;;16.20;8.00;;;;;;;6.44;76.36;102795.00;5036221;28;20454;-80
2022/04/29 05:33:03;;;;;;;15.27;7.17;;;;;;;6.51;75.80;102800.34;5036499;28;20393;-80
2022/04/29 05:35:29;;;;;;;20.27;8.60;;;;;;;6.55;75.26;102807.38;5035723;28;20030;-80
2022/04/29 05:37:55;;;;;;;17.88;8.10;;;;;;;6.56;75.76;102809.97;5035855;28;20033;-80
2022/04/29 05:43:05;;;;;;;18.00;8.93;;;;;;;6.57;75.91;102806.59;5036296;28;20040;-80
2022/04/29 05:45:33;;;;;;;18.45;8.65;;;;;;;6.57;76.29;102806.59;5036301;28;20032;-80
2022/04/29 05:47:59;;;;;;;15.57;7.60;;;;;;;6.62;76.03;102804.16;5035951;28;20018;-80
2022/04/29 05:50:24;;;;;;;18.58;9.20;;;;;;;6.61;75.85;102808.44;5035341;28;20432;-82
2022/04/29 05:52:55;;;;;;;18.95;8.90;;;;;;;6.60;76.18;102806.69;5035837;28;20049;-80
2022/04/29 05:55:22;;;;;;;21.02;10.13;;;;;;;6.54;76.54;102808.19;5035762;28;20494;-80
2022/04/29 05:57:50;;;;;;;19.65;9.15;;;;;;;6.57;76.69;102811.75;5035339;28;20532;-80
2022/04/29 06:00:16;;;;;;;19.92;9.40;;;;;;;6.55;76.34;102813.38;5036323;28;20037;-81
2022/04/29 06:09:29;;;;;;;21.13;10.75;;;;;;;6.60;75.99;102818.69;5035703;28;20041;-82
2022/04/29 06:16:11;;;;;;;20.98;10.15;;;;;;;6.72;76.22;102823.41;5035672;28;20049;-81
2022/04/29 06:18:57;;;;;;;18.05;8.52;;;;;;;6.83;76.14;102829.78;5035349;28;20553;-81
2022/04/29 06:21:22;;;;;;;18.58;8.88;;;;;;;6.85;74.82;102820.41;5035446;28;20547;-83
2022/04/29 06:27:09;;;;;;;21.25;10.10;;;;;;;6.93;75.30;102825.78;5035612;28;20424;-81
2022/04/29 06:29:34;;;;;;;21.90;9.63;;;;;;;6.97;75.35;102831.94;5035205;28;20033;-81
2022/04/29 06:31:59;;;;;;;18.38;8.52;;;;;;;7.05;75.10;102831.31;5034788;28;20381;-79
2022/04/29 06:34:24;;;;;;;16.77;7.95;;;;;;;7.17;75.65;102835.13;5035215;28;20053;-79
2022/04/29 06:36:52;;;;;;;13.25;6.43;;;;;;;7.30;74.95;102842.41;5035461;28;20408;-80
2022/04/29 06:39:18;;;;;;;12.98;6.47;;;;;;;7.42;74.74;102842.78;5035002;28;20026;-80
2022/04/29 06:41:43;;;;;;;9.60;5.50;;;;;;;7.53;74.51;102843.13;5034958;28;20105;-79
2022/04/29 06:44:08;;;;;;;19.43;8.23;;;;;;;7.57;74.04;102842.38;5034741;28;20034;-79
2022/04/29 06:46:34;;;;;;;15.65;7.63;;;;;;;7.61;74.10;102839.88;5034918;28;20367;-79
2022/04/29 06:49:00;;;;;;;19.50;9.25;;;;;;;7.59;74.01;102839.84;5034874;28;20060;-80
2022/04/29 06:51:25;;;;;;;17.30;8.52;;;;;;;7.63;73.90;102840.81;5034414;28;20069;-80
2022/04/29 06:53:51;;;;;;;19.60;9.45;;;;;;;7.68;73.40;102839.22;5034248;28;20095;-80
2022/04/29 06:56:16;;;;;;;18.90;8.63;;;;;;;7.72;73.41;102844.50;5035031;28;20025;-80
2022/04/29 06:58:41;;;;;;;22.23;10.80;;;;;;;7.70;73.17;102845.31;5034235;28;20160;-78
2022/04/29 07:01:09;;;;;;;21.60;11.48;;;;;;;7.72;73.13;102844.50;5034609;28;20026;-79
2022/04/29 07:03:36;;;;;;;21.77;10.35;;;;;;;7.76;73.50;102850.69;5034850;28;20043;-79
2022/04/29 07:06:02;;;;;;;;;;;;;;;7.88;72.98;102855.31;5034355;28;20367;-79
2022/04/29 07:08:31;;;;;;;18.20;9.05;;;;;;;8.07;71.90;102851.53;5034475;28;19924;-78
2022/04/29 07:10:56;;;;;;;20.40;9.90;;;;;;;8.17;72.15;102844.88;5034477;28;20034;-80
2022/04/29 07:13:21;;;;;;;18.83;8.97;;;;;;;8.33;72.05;102848.78;5034813;28;20029;-79
2022/04/29 07:15:48;;;;;;;16.53;8.40;;;;;;;8.42;72.05;102846.41;5034079;28;20522;-79
2022/04/29 07:18:14;;;;;;;17.10;8.40;;;;;;;8.53;71.61;102846.72;5034353;28;20080;-79
2022/04/29 07:20:39;;;;;;;20.73;10.55;;;;;;;8.46;71.10;102852.53;5031866;28;20017;-79
2022/04/29 07:23:05;;;;;;;21.45;10.80;;;;;;;8.37;70.46;102844.56;5033482;28;20507;-79
2022/04/29 07:25:30;;;;;;;22.73;10.68;;;;;;;8.35;71.22;102844.50;5034380;28;20143;-79
2022/04/29 07:27:55;;;;;;;21.30;11.00;;;;;;;8.37;71.28;102844.56;5033603;28;20481;-79
2022/04/29 07:30:23;;;;;;;19.20;9.65;;;;;;;8.49;71.60;102847.50;5034517;28;20033;-79
2022/04/29 07:32:49;;;;;;;16.92;8.40;;;;;;;8.69;71.12;102844.53;5033861;28;20029;-80
2022/04/29 07:43:26;;;;;;;22.85;10.77;;;;;;;9.10;69.02;102842.94;5034237;28;20048;-79
2022/04/29 07:45:52;;;;;;;21.20;10.00;;;;;;;9.04;69.42;102836.72;5032244;28;20097;-79
2022/04/29 07:48:18;;;;;;;20.85;10.02;;;;;;;9.04;69.96;102836.72;5033525;28;20512;-78
2022/04/29 07:50:44;;;;;;;22.98;11.60;;;;;;;9.03;68.98;102837.56;5033044;28;20458;-78
2022/04/29 07:53:09;;;;;;;21.10;10.25;;;;;;;9.12;69.45;102837.78;5033883;28;20117;-77
2022/04/29 07:55:35;;;;;;;20.37;9.73;;;;;;;9.30;68.98;102842.50;5033342;28;20018;-78
2022/04/29 07:58:03;;;;;;;20.92;10.25;;;;;;;9.49;68.35;102848.06;5033574;28;20176;-78
2022/04/29 08:00:28;;;;;;;18.83;9.35;;;;;;;9.64;67.94;102843.22;5033559;28;20033;-78
2022/04/29 08:02:54;;;;;;;18.67;9.27;;;;;;;9.82;68.17;102842.72;5033134;28;20025;-78
2022/04/29 08:05:20;;;;;;;18.40;8.67;;;;;;;10.01;67.24;102838.78;5033102;28;20136;-78
2022/04/29 08:07:47;;;;;;;14.57;7.13;;;;;;;10.17;67.19;102846.81;5033075;28;20088;-78
2022/04/29 08:10:13;;;;;;;15.52;7.85;;;;;;;10.32;66.78;102846.22;5033028;28;20029;-78
2022/04/29 08:12:38;;;;;;;14.03;7.07;;;;;;;10.40;66.80;102846.41;5033517;28;20032;-78
2022/04/29 08:15:07;;;;;;;17.53;8.33;;;;;;;10.50;65.61;102848.31;5033047;28;20021;-80
2022/04/29 08:17:32;;;;;;;16.38;7.60;;;;;;;10.58;66.48;102856.22;5013143;28;20034;-79
2022/04/29 08:19:58;;;;;;;18.23;8.77;;;;;;;10.57;65.56;102849.28;5013541;28;20026;-79
2022/04/29 08:22:23;;;;;;;16.00;7.33;;;;;;;10.62;65.79;102851.13;5013425;28;20398;-79
2022/04/29 08:24:48;;;;;;;16.87;7.30;;;;;;;10.73;65.46;102847.81;5012902;28;20026;-80
2022/04/29 08:27:14;;;;;;;13.93;6.60;;;;;;;10.76;65.83;102847.88;5013637;28;20041;-80
2022/04/29 08:29:39;;;;;;;11.57;5.93;;;;;;;10.89;65.48;102857.63;5012691;28;20030;-80
2022/04/29 08:32:05;;;;;;;15.23;7.53;;;;;;;11.00;64.84;102849.13;5012832;28;20100;-80
2022/04/29 08:34:33;;;;;;;13.00;6.55;;;;;;;11.03;65.26;102855.22;5013541;28;20037;-81
2022/04/29 08:37:02;;;;;;;15.30;7.00;;;;;;;11.10;64.90;102858.78;5013056;28;20030;-80
2022/04/29 08:39:28;;;;;;;18.23;8.13;;;;;;;11.10;64.15;102861.38;5012704;28;20537;-81
2022/04/29 08:41:54;;;;;;;13.20;6.93;;;;;;;11.11;65.10;102861.41;5027907;28;20117;-82
2022/04/29 08:44:19;;;;;;;14.23;7.03;;;;;;;11.17;64.85;102860.63;5032978;28;20458;-81
2022/04/29 08:46:45;;;;;;;16.60;7.40;;;;;;;11.18;63.61;102861.50;5032349;28;20032;-81
2022/04/29 08:49:10;;;;;;;14.73;7.03;;;;;;;11.13;63.34;102859.69;5032297;28;20025;-81
2022/04/29 08:51:38;;;;;;;15.83;7.17;;;;;;;11.12;64.18;102851.91;5032561;28;20059;-86
2022/04/29 08:54:04;;;;;;;19.83;9.30;;;;;;;10.96;63.31;102849.06;5032453;28;20499;-82
2022/04/29 08:59:22;;;;;;;20.45;10.10;;;;;;;10.77;64.52;102850.47;5012937;28;20512;-81
2022/04/29 09:01:48;;;;;;;18.33;8.70;;;;;;;10.85;64.42;102849.75;5032674;28;20033;-81
2022/04/29 09:04:13;;;;;;;16.40;8.07;;;;;;;10.97;64.62;102849.94;5032558;28;20468;-82
2022/04/29 09:06:51;;;;;;;14.63;7.77;;;;;;;11.10;64.61;102844.06;5031244;28;20070;-82
2022/04/29 09:09:21;;;;;;;14.48;7.68;;;;;;;11.28;64.71;102847.78;5032579;28;20040;-80
2022/04/29 09:11:46;;;;;;;18.52;8.85;;;;;;;11.37;63.30;102844.44;5032126;28;20478;-80
2022/04/29 09:14:23;;;;;;;17.70;8.90;;;;;;;11.37;64.39;102832.31;5032402;28;20026;-80
2022/04/29 09:16:49;;;;;;;20.58;10.02;;;;;;;11.29;63.91;102839.13;5032079;28;20504;-80
2022/04/29 09:19:35;;;;;;;18.60;8.55;;;;;;;11.31;64.37;102840.03;5032281;28;20047;-80
2022/04/29 09:22:05;;;;;;;18.45;8.25;;;;;;;11.32;64.01;102848.69;5031728;28;20075;-80
2022/04/29 09:24:31;;;;;;;22.65;10.00;;;;;;;11.26;64.38;102847.75;5032463;28;20079;-81
2022/04/29 09:27:00;;;;;;;19.47;9.60;;;;;;;11.19;64.50;102855.47;5032309;28;20553;-81
2022/04/29 09:29:28;;;;;;;19.15;9.07;;;;;;;11.24;64.50;102849.47;5032433;28;20025;-80
2022/04/29 09:31:58;;;;;;;17.25;8.52;;;;;;;11.36;63.99;102853.97;5031969;28;20032;-81
2022/04/29 09:34:58;;;;;;;18.00;8.48;;;;;;;11.50;64.22;102855.88;5031530;28;20033;-81
2022/04/29 09:37:28;;;;;;;13.05;7.07;;;;;;;11.71;64.34;102860.47;5032190;28;20034;-80
2022/04/29 09:40:02;;;;;;;17.45;8.85;;;;;;;11.80;63.62;102860.59;5031686;28;20432;-79
2022/04/29 09:42:36;;;;;;;13.07;7.30;;;;;;;11.92;62.75;102849.44;5031622;28;20043;-80
2022/04/29 09:45:32;;;;;;;18.73;9.05;;;;;;;11.96;63.21;102856.44;5032421;28;20026;-80
2022/04/29 09:47:58;;;;;;;20.17;9.00;;;;;;;11.93;61.82;102860.75;5019413;28;20041;-80
2022/04/29 09:50:47;;;;;;;18.83;9.00;;;;;;;11.89;62.16;102862.41;5031282;28;20060;-80
2022/04/29 09:53:20;;;;;;;17.60;8.63;;;;;;;11.86;62.54;102855.44;5030798;28;20291;-81
2022/04/29 09:56:06;;;;;;;18.17;8.50;;;;;;;11.79;62.99;102858.84;5030584;28;20109;-79
2022/04/29 09:58:31;;;;;;;19.40;8.65;;;;;;;11.78;62.70;102851.91;5032007;28;20025;-78
2022/04/29 10:00:57;;;;;;;16.90;8.57;;;;;;;11.74;62.81;102856.19;5031547;28;20480;-79
2022/04/29 10:03:23;;;;;;;15.90;8.40;;;;;;;11.76;62.21;102853.59;5030633;28;20022;-79
2022/04/29 10:05:50;;;;;;;17.03;8.60;;;;;;;11.72;62.70;102847.50;5028212;28;20021;-80
2022/04/29 10:08:18;;;;;;;15.82;7.88;;;;;;;11.77;62.86;102846.66;5031942;28;20083;-81
2022/04/29 10:10:46;;;;;;;15.80;7.30;;;;;;;11.76;62.44;102839.72;5034433;28;20048;-80
2022/04/29 10:13:14;;;;;;;14.20;7.45;;;;;;;11.74;62.98;102840.59;5035241;28;20029;-80
2022/04/29 10:15:40;;;;;;;16.48;7.40;;;;;;;11.78;62.79;102841.50;5034324;28;20033;-80
2022/04/29 10:23:38;;;;;;;;;;;;;;;11.85;63.00;102830.28;5034123;28;20504;-80
2022/04/29 10:26:04;;;;;;;17.83;8.17;;;;;;;11.88;63.17;102837.25;5032395;28;20003;-80
2022/04/29 10:28:30;;;;;;;15.90;7.83;;;;;;;11.88;62.48;102830.31;5035218;28;20045;-80
2022/04/29 10:31:06;;;;;;;18.50;8.60;;;;;;;11.83;62.21;102825.94;5034672;28;20505;-80
2022/04/29 10:33:32;;;;;;;18.60;8.98;;;;;;;11.76;62.32;102830.19;5035177;28;20291;-81
2022/04/29 10:36:05;;;;;;;19.00;9.50;;;;;;;11.69;62.86;102826.63;5033524;28;20131;-82
2022/04/29 10:38:34;;;;;;;18.88;8.90;;;;;;;11.62;62.67;102829.13;5034819;28;20033;-80
2022/04/29 10:41:13;;;;;;;17.95;9.10;;;;;;;11.56;63.10;102827.34;5034798;28;20425;-81
2022/04/29 10:43:51;;;;;;;16.13;7.70;;;;;;;11.67;63.46;102820.53;5035050;28;20057;-80
2022/04/29 10:46:20;;;;;;;15.57;7.90;;;;;;;11.80;62.54;102820.69;5034880;28;20025;-81
2022/04/29 10:48:46;;;;;;;21.70;10.18;;;;;;;11.62;62.63;102830.03;5034712;28;20037;-81
2022/04/29 10:51:24;;;;;;;18.37;9.30;;;;;;;11.63;62.51;102820.50;5034426;28;20050;-80
2022/04/29 10:53:52;;;;;;;16.73;7.55;;;;;;;11.72;64.00;102818.88;5033928;28;20037;-81
2022/04/29 10:56:26;;;;;;;15.40;7.15;;;;;;;11.88;62.84;102819.91;5035286;28;20026;-80
2022/04/29 10:58:51;;;;;;;13.82;6.50;;;;;;;12.03;62.54;102819.25;5034508;28;20382;-81
2022/04/29 11:01:16;;;;;;;11.63;6.27;;;;;;;12.16;62.48;102812.41;5034365;28;20033;-80
2022/04/29 11:03:46;;;;;;;14.40;6.60;;;;;;;12.27;61.08;102812.53;5034454;28;20544;-81
2022/04/29 11:06:12;;;;;;;11.25;6.20;;;;;;;12.32;61.91;102808.25;5034099;28;20478;-81
2022/04/29 11:08:39;;;;;;;16.42;7.97;;;;;;;12.29;61.13;102815.13;5034821;28;20025;-81
2022/04/29 11:11:08;;;;;;;15.75;7.55;;;;;;;12.25;61.28;102803.81;5034677;28;20030;-80
2022/04/29 11:13:43;;;;;;;16.02;8.00;;;;;;;12.25;61.51;102803.81;5034278;28;20030;-81
2022/04/29 11:16:16;;;;;;;14.40;6.93;;;;;;;12.27;61.70;102806.47;5034667;28;20032;-80
2022/04/29 11:18:44;;;;;;;14.30;6.60;;;;;;;12.30;61.63;102803.88;5033819;28;20036;-81
2022/04/29 11:26:48;;;;;;;16.52;7.80;;;;;;;12.52;60.87;102805.78;5033079;28;20036;-80
2022/04/29 11:29:14;;;;;;;11.65;5.70;;;;;;;12.60;61.76;102808.47;5034320;28;20021;-81
2022/04/29 11:31:41;;;;;;;13.27;6.10;;;;;;;12.69;60.43;102794.66;5033873;28;20029;-80
2022/04/29 11:34:13;;;;;;;10.32;5.13;;;;;;;12.79;60.97;102799.06;5034053;28;20040;-83
2022/04/29 11:36:39;;;;;;;14.40;6.15;;;;;;;12.88;60.01;102795.66;5033389;28;20056;-80
2022/04/29 11:39:08;;;;;;;13.97;6.77;;;;;;;12.90;59.46;102793.91;5033664;28;20025;-79
2022/04/29 11:41:33;;;;;;;16.25;7.00;;;;;;;12.99;60.59;102800.91;5033645;28;20398;-78
2022/04/29 11:44:01;;;;;;;13.17;6.20;;;;;;;13.12;59.97;102797.50;5034626;28;20022;-79
2022/04/29 11:46:26;;;;;;;11.50;5.55;;;;;;;13.22;60.06;102790.63;5034667;28;20378;-78
2022/04/29 11:48:59;;;;;;;9.70;5.30;;;;;;;13.44;59.10;102794.22;5033627;28;20033;-75
2022/04/29 11:51:31;;;;;;;18.83;7.95;;;;;;;13.51;56.53;102802.94;5034168;28;20045;-79
2022/04/29 11:54:01;;;;;;;18.05;7.60;;;;;;;13.49;56.93;102806.41;5033539;28;20037;-78
2022/04/29 11:56:35;;;;;;;15.98;7.95;;;;;;;13.43;57.36;102795.06;5033979;28;20030;-82
2022/04/29 11:59:02;;;;;;;13.70;6.80;;;;;;;13.54;56.29;102794.25;5033139;28;20393;-80
2022/04/29 12:01:28;;;;;;;12.93;6.18;;;;;;;13.76;58.28;102792.59;5034270;28;20419;-78
2022/04/29 12:03:55;;;;;;;16.50;7.25;;;;;;;14.02;55.78;102782.19;5032980;28;20040;-78